AirNav   TITAN Aviation Fuels
 
 475 users online  

OH84 ODOT District Nr 1 Heliport
Lima, Ohio, USA

GOING TO LIMA?


FAA INFORMATION EFFECTIVE 09 SEPTEMBER 2021

Location

FAA Identifier: OH84
Lat/Long: 40-46-16.1840N 084-06-21.8110W
40-46.269733N 084-06.363517W
40.7711622,-84.1060586
(estimated)
Elevation: 863 ft. / 263 m (estimated)
Variation: 04W (1985)
From city: 2 miles N of LIMA, OH
Time zone: UTC -4 (UTC -5 during Standard Time)
Zip code: 45801

Heliport Operations

Heliport use: Private use. Permission required prior to landing
Activation date: 08/1971
Control tower: no
ARTCC: INDIANAPOLIS CENTER
FSS: DAYTON FLIGHT SERVICE STATION
Attendance: DAYLIGHT HOURS
Wind indicator: yes
Segmented circle: no

Heliport Communications

WX ASOS at AOH (5 nm SE): 128.725 (419-224-6098)
WX AWOS-3 at OWX (17 nm N): 120.525 (419-523-4151)
WX AWOS-3PT at AXV (19 nm SW): 128.325 (419-753-2821)

Nearby radio navigation aids

VOR radial/distance  VOR name  Freq  Var
FBCr237/19.3FLAG CITY VORTAC108.2002W
RODr359/29.1ROSEWOOD VORTAC117.5005W

Heliport Services

Runway Information

Helipad H1

Dimensions: 50 x 50 ft. / 15 x 15 m
Surface: asphalt/concrete
Latitude: 40-46.269733N
Longitude: 084-06.363517W
Elevation: 863.0 ft.
Traffic pattern: leftleft

Heliport Ownership and Management from official FAA records

Ownership: Publicly-owned
Owner: ODOT DIV OF HWY DISTRICT 1
2100 N. WEST ST BOX 40
LIMA, OH 45802
Phone 419-222-9055
Manager: ROBER L. DILLHOFF
5121 ASTER DR
ELIDA, OH 45807
Phone 419-339-2602

Additional Remarks

A52-H1 7' FENCE-M 240' E AND 150' N.
FOR CD CTC INDIANAPOLIS ARTCC AT 317-247-2411.

Instrument Procedures

There are no published instrument procedures at OH84.

Some nearby airports with instrument procedures:

KAOH - Lima Allen County Airport (5 nm SE)
5G7 - Bluffton Airport (13 nm NE)
KOWX - Putnam County Airport (17 nm N)
KAXV - Neil Armstrong Airport (19 nm SW)
I95 - Hardin County Airport (23 nm SE)
 
Loc | Ops | Rwys | IFR | FBO | Links
Com | Nav | Svcs | Stats | Notes
Area around OH84 (ODOT District Nr 1 Heliport)
 
Road maps at: MapQuest Bing Google
 
Aerial photo
No photo
 
Sectional chart

 
Airport distance calculator
Flying to ODOT District Nr 1 Heliport? Find the distance to fly.

From to OH84

Sunrise and sunset
Times for 20-Sep-2021
 Local
(UTC-4)
 Zulu
(UTC)
Morning civil twilight06:5610:56
Sunrise07:2311:23
Sunset19:3723:37
Evening civil twilight20:0400:04

Current date and time
Zulu (UTC)  20-Sep-2021 05:09:01
Local (UTC-4)  20-Sep-2021 01:09:01
 
METAR
KAOH 
6nm SE 
200453Z AUTO 11004KT 10SM CLR 21/17 A3011 RMK AO2 SLP188 T02060167 403220161
KOWX 
17nm N 
200435Z AUTO 13003KT 10SM CLR 20/16 A3012 RMK AO1
KAXV 
19nm SW 
200455Z AUTO 13003KT 10SM CLR 22/17 A3010 RMK AO2
TAF
KFDY 
25nm NE 
191731Z 1918/2018 12004KT P6SM SKC FM200500 12006KT P6SM BKN250 FM201600 18010KT P6SM BKN045
NOTAMs
Click for the latest NOTAMs
NOTAMs are issued by the DoD/FAA and will open in a separate window not controlled by AirNav.

 

 
 

Would you like to see your business listed on this page?

 If your business provides an interesting product or service to pilots, flight crews, aircraft, or users of the ODOT District Nr 1 Heliport, you should consider listing it here.  To start the listing process, click on the button below
 
Add a business
 

Other Pages about ODOT District Nr 1 Heliport

Update a link
 
Copyright © AirNav, LLC. All rights reserved. Privacy Policy  Contact